sensor_id;sensor_type;location;lat;lon;timestamp;pressure;altitude;pressure_sealevel;temperature;humidity
38939;BME280;24211;49.980;19.776;2023-04-26T05:54:23;98987.03;;;7.50;100.00
38939;BME280;24211;49.980;19.776;2023-04-26T05:56:53;98988.94;;;7.74;100.00
38939;BME280;24211;49.980;19.776;2023-04-26T05:59:22;98979.38;;;7.98;100.00
38939;BME280;24211;49.980;19.776;2023-04-26T06:01:50;98981.97;;;8.05;100.00
38939;BME280;24211;49.980;19.776;2023-04-26T06:04:19;98973.03;;;8.24;100.00
38939;BME280;24211;49.980;19.776;2023-04-26T07:46:22;99005.75;;;10.59;93.55
38939;BME280;24211;49.980;19.776;2023-04-26T07:48:52;98998.78;;;10.81;88.32
38939;BME280;24211;49.980;19.776;2023-04-26T07:51:19;98999.22;;;10.78;83.09
38939;BME280;24211;49.980;19.776;2023-04-26T07:53:47;99011.31;;;10.45;82.32
38939;BME280;24211;49.980;19.776;2023-04-26T07:56:14;99009.56;;;10.74;83.57
38939;BME280;24211;49.980;19.776;2023-04-26T07:58:42;99000.78;;;11.25;81.56
38939;BME280;24211;49.980;19.776;2023-04-26T08:01:09;99002.47;;;11.03;78.39
38939;BME280;24211;49.980;19.776;2023-04-26T08:03:38;99008.38;;;10.93;78.70
38939;BME280;24211;49.980;19.776;2023-04-26T08:06:05;99015.97;;;10.85;77.07
38939;BME280;24211;49.980;19.776;2023-04-26T08:08:36;99007.47;;;10.88;76.38
38939;BME280;24211;49.980;19.776;2023-04-26T08:11:11;99010.94;;;11.00;74.54
38939;BME280;24211;49.980;19.776;2023-04-26T08:13:38;99014.53;;;11.17;73.29
38939;BME280;24211;49.980;19.776;2023-04-26T08:16:05;99007.31;;;11.06;72.95
38939;BME280;24211;49.980;19.776;2023-04-26T08:18:33;99012.94;;;10.93;71.85
38939;BME280;24211;49.980;19.776;2023-04-26T08:21:00;99011.88;;;10.94;73.63
38939;BME280;24211;49.980;19.776;2023-04-26T08:23:32;99020.56;;;11.24;71.92
38939;BME280;24211;49.980;19.776;2023-04-26T08:25:59;99017.09;;;11.12;71.31
38939;BME280;24211;49.980;19.776;2023-04-26T08:28:27;99008.78;;;11.37;70.21
38939;BME280;24211;49.980;19.776;2023-04-26T08:30:54;99017.72;;;11.42;70.05
38939;BME280;24211;49.980;19.776;2023-04-26T08:33:22;99015.31;;;11.57;69.75
38939;BME280;24211;49.980;19.776;2023-04-26T08:35:49;99022.38;;;11.35;71.49
38939;BME280;24211;49.980;19.776;2023-04-26T08:38:16;99025.44;;;11.27;69.32
38939;BME280;24211;49.980;19.776;2023-04-26T08:40:46;99010.97;;;11.79;69.27
38939;BME280;24211;49.980;19.776;2023-04-26T08:43:14;99020.34;;;11.94;67.58
38939;BME280;24211;49.980;19.776;2023-04-26T08:45:45;99017.34;;;12.07;69.24
38939;BME280;24211;49.980;19.776;2023-04-26T08:48:13;99012.25;;;12.22;68.32
38939;BME280;24211;49.980;19.776;2023-04-26T08:50:45;99006.13;;;12.38;66.53
38939;BME280;24211;49.980;19.776;2023-04-26T08:53:14;99012.78;;;12.35;66.87
38939;BME280;24211;49.980;19.776;2023-04-26T08:55:49;99016.16;;;12.14;67.59
38939;BME280;24211;49.980;19.776;2023-04-26T08:58:17;99029.25;;;11.82;67.25
38939;BME280;24211;49.980;19.776;2023-04-26T09:00:45;99040.56;;;11.73;69.80
38939;BME280;24211;49.980;19.776;2023-04-26T09:03:13;99041.53;;;11.55;74.78
38939;BME280;24211;49.980;19.776;2023-04-26T09:05:41;99048.94;;;11.25;83.42
38939;BME280;24211;49.980;19.776;2023-04-26T09:08:15;99047.00;;;10.86;94.33
38939;BME280;24211;49.980;19.776;2023-04-26T09:10:46;99052.69;;;10.89;100.00
38939;BME280;24211;49.980;19.776;2023-04-26T09:13:13;99051.16;;;10.82;100.00
38939;BME280;24211;49.980;19.776;2023-04-26T09:15:42;99039.19;;;10.96;100.00
38939;BME280;24211;49.980;19.776;2023-04-26T09:18:20;99043.38;;;10.92;99.38
38939;BME280;24211;49.980;19.776;2023-04-26T09:21:07;99036.06;;;11.10;94.61
38939;BME280;24211;49.980;19.776;2023-04-26T09:23:55;99038.78;;;11.39;88.87
38939;BME280;24211;49.980;19.776;2023-04-26T09:26:23;99028.81;;;11.62;84.17
38939;BME280;24211;49.980;19.776;2023-04-26T09:29:15;99027.59;;;12.10;78.76
38939;BME280;24211;49.980;19.776;2023-04-26T09:31:46;99034.53;;;12.39;76.83
38939;BME280;24211;49.980;19.776;2023-04-26T09:34:16;99028.53;;;12.65;71.79
38939;BME280;24211;49.980;19.776;2023-04-26T09:36:52;99032.09;;;12.71;71.07
38939;BME280;24211;49.980;19.776;2023-04-26T09:39:31;99030.47;;;12.53;73.17
38939;BME280;24211;49.980;19.776;2023-04-26T09:41:59;99029.16;;;12.39;73.86
38939;BME280;24211;49.980;19.776;2023-04-26T09:44:30;99026.97;;;12.19;71.58
38939;BME280;24211;49.980;19.776;2023-04-26T09:47:09;99037.44;;;11.64;72.12
38939;BME280;24211;49.980;19.776;2023-04-26T09:49:55;99035.59;;;11.53;74.41
38939;BME280;24211;49.980;19.776;2023-04-26T09:52:22;99031.81;;;11.77;73.00
38939;BME280;24211;49.980;19.776;2023-04-26T09:54:52;99027.72;;;11.87;69.26
38939;BME280;24211;49.980;19.776;2023-04-26T09:57:21;99029.44;;;11.93;69.79
38939;BME280;24211;49.980;19.776;2023-04-26T09:59:53;99026.66;;;11.88;67.73
38939;BME280;24211;49.980;19.776;2023-04-26T10:02:25;99034.31;;;11.96;68.50
38939;BME280;24211;49.980;19.776;2023-04-26T10:04:55;99025.38;;;11.90;68.14
38939;BME280;24211;49.980;19.776;2023-04-26T10:07:24;99026.47;;;12.06;69.12
38939;BME280;24211;49.980;19.776;2023-04-26T10:09:53;99031.34;;;12.09;68.61
38939;BME280;24211;49.980;19.776;2023-04-26T10:12:21;99026.19;;;11.91;69.65
38939;BME280;24211;49.980;19.776;2023-04-26T10:14:49;99022.13;;;11.88;68.26
38939;BME280;24211;49.980;19.776;2023-04-26T10:17:18;99025.44;;;11.78;65.45
38939;BME280;24211;49.980;19.776;2023-04-26T10:19:52;99029.81;;;11.85;66.00
38939;BME280;24211;49.980;19.776;2023-04-26T10:22:31;99021.19;;;12.11;67.96
38939;BME280;24211;49.980;19.776;2023-04-26T10:25:00;99025.56;;;12.17;69.26
38939;BME280;24211;49.980;19.776;2023-04-26T10:27:45;99019.66;;;12.15;68.59
38939;BME280;24211;49.980;19.776;2023-04-26T10:30:21;99018.78;;;12.26;66.72
38939;BME280;24211;49.980;19.776;2023-04-26T10:35:25;99026.00;;;12.09;65.57
38939;BME280;24211;49.980;19.776;2023-04-26T10:40:39;99033.84;;;11.99;65.09
38939;BME280;24211;49.980;19.776;2023-04-26T10:45:45;99033.25;;;11.97;64.84
38939;BME280;24211;49.980;19.776;2023-04-26T10:48:14;99033.56;;;11.84;63.18
38939;BME280;24211;49.980;19.776;2023-04-26T10:59:07;99034.03;;;12.09;57.99
38939;BME280;24211;49.980;19.776;2023-04-26T11:01:59;99032.09;;;12.21;55.30
38939;BME280;24211;49.980;19.776;2023-04-26T11:04:52;99029.34;;;12.49;54.67
38939;BME280;24211;49.980;19.776;2023-04-26T11:07:40;99025.53;;;13.00;55.12
38939;BME280;24211;49.980;19.776;2023-04-26T11:10:08;99021.38;;;13.47;52.92
38939;BME280;24211;49.980;19.776;2023-04-26T11:12:41;99023.53;;;13.72;50.81
38939;BME280;24211;49.980;19.776;2023-04-26T11:15:11;99029.03;;;13.82;51.72
38939;BME280;24211;49.980;19.776;2023-04-26T11:17:38;99027.44;;;13.86;51.81
38939;BME280;24211;49.980;19.776;2023-04-26T11:20:15;99021.50;;;13.84;50.61
38939;BME280;24211;49.980;19.776;2023-04-26T11:22:42;99028.63;;;13.95;52.17
38939;BME280;24211;49.980;19.776;2023-04-26T11:25:12;99030.22;;;13.96;52.00
38939;BME280;24211;49.980;19.776;2023-04-26T11:27:44;99031.91;;;13.54;53.04
38939;BME280;24211;49.980;19.776;2023-04-26T11:30:12;99055.84;;;13.00;53.42
38939;BME280;24211;49.980;19.776;2023-04-26T11:32:39;99049.44;;;13.01;53.66
38939;BME280;24211;49.980;19.776;2023-04-26T11:35:07;99047.31;;;13.03;53.12
38939;BME280;24211;49.980;19.776;2023-04-26T11:37:34;99053.47;;;12.82;52.71
38939;BME280;24211;49.980;19.776;2023-04-26T11:40:02;99051.75;;;12.76;52.46
38939;BME280;24211;49.980;19.776;2023-04-26T11:42:29;99048.66;;;12.84;52.32
38939;BME280;24211;49.980;19.776;2023-04-26T11:44:57;99049.47;;;12.85;51.62
38939;BME280;24211;49.980;19.776;2023-04-26T11:47:25;99050.91;;;12.92;50.86
38939;BME280;24211;49.980;19.776;2023-04-26T11:49:56;99052.06;;;12.96;51.12
38939;BME280;24211;49.980;19.776;2023-04-26T11:52:25;99052.88;;;13.14;48.85
38939;BME280;24211;49.980;19.776;2023-04-26T11:55:02;99047.78;;;13.34;48.57
38939;BME280;24211;49.980;19.776;2023-04-26T11:57:33;99057.22;;;13.20;49.69
38939;BME280;24211;49.980;19.776;2023-04-26T12:00:12;99059.84;;;12.98;49.51
38939;BME280;24211;49.980;19.776;2023-04-26T12:02:49;99063.94;;;12.84;49.88
38939;BME280;24211;49.980;19.776;2023-04-26T12:05:27;99057.41;;;12.96;50.23
38939;BME280;24211;49.980;19.776;2023-04-26T12:07:59;99058.38;;;12.90;50.72
38939;BME280;24211;49.980;19.776;2023-04-26T12:10:34;99054.75;;;12.96;51.08
38939;BME280;24211;49.980;19.776;2023-04-26T12:13:02;99058.72;;;13.10;50.82
38939;BME280;24211;49.980;19.776;2023-04-26T12:15:32;99058.91;;;12.87;51.09
38939;BME280;24211;49.980;19.776;2023-04-26T12:18:06;99065.81;;;12.67;52.03
38939;BME280;24211;49.980;19.776;2023-04-26T12:20:39;99066.84;;;12.66;52.95
38939;BME280;24211;49.980;19.776;2023-04-26T12:23:15;99068.63;;;12.93;50.54
38939;BME280;24211;49.980;19.776;2023-04-26T12:25:56;99059.00;;;13.31;49.45
38939;BME280;24211;49.980;19.776;2023-04-26T12:28:28;99055.63;;;13.62;48.89
38939;BME280;24211;49.980;19.776;2023-04-26T12:30:55;99051.72;;;13.96;47.80
38939;BME280;24211;49.980;19.776;2023-04-26T12:33:23;99052.16;;;14.36;47.43
38939;BME280;24211;49.980;19.776;2023-04-26T12:35:51;99052.44;;;14.40;47.32
38939;BME280;24211;49.980;19.776;2023-04-26T12:38:18;99063.19;;;14.13;47.23
38939;BME280;24211;49.980;19.776;2023-04-26T12:40:46;99065.63;;;13.88;47.28
38939;BME280;24211;49.980;19.776;2023-04-26T12:43:13;99063.94;;;14.09;46.80
38939;BME280;24211;49.980;19.776;2023-04-26T12:45:42;99066.28;;;14.27;45.53
38939;BME280;24211;49.980;19.776;2023-04-26T12:48:10;99063.44;;;14.33;45.75
38939;BME280;24211;49.980;19.776;2023-04-26T12:50:38;99063.69;;;14.64;43.71
38939;BME280;24211;49.980;19.776;2023-04-26T12:53:05;99060.28;;;14.73;43.79
38939;BME280;24211;49.980;19.776;2023-04-26T12:55:32;99061.97;;;15.26;43.23
38939;BME280;24211;49.980;19.776;2023-04-26T12:58:00;99058.06;;;15.49;42.39
38939;BME280;24211;49.980;19.776;2023-04-26T13:00:29;99066.00;;;15.76;42.23
38939;BME280;24211;49.980;19.776;2023-04-26T13:02:57;99059.25;;;15.78;41.75
38939;BME280;24211;49.980;19.776;2023-04-26T13:05:24;99060.56;;;15.65;41.02
38939;BME280;24211;49.980;19.776;2023-04-26T13:07:52;99064.81;;;15.51;40.88
38939;BME280;24211;49.980;19.776;2023-04-26T13:10:19;99058.66;;;15.61;41.47
38939;BME280;24211;49.980;19.776;2023-04-26T13:12:47;99067.84;;;15.70;40.72
38939;BME280;24211;49.980;19.776;2023-04-26T13:15:14;99054.50;;;16.05;40.52
38939;BME280;24211;49.980;19.776;2023-04-26T13:17:44;99054.53;;;16.25;40.84
38939;BME280;24211;49.980;19.776;2023-04-26T13:20:12;99057.03;;;16.62;40.56
38939;BME280;24211;49.980;19.776;2023-04-26T13:22:40;99059.16;;;16.95;40.02
38939;BME280;24211;49.980;19.776;2023-04-26T13:25:09;99057.75;;;17.23;38.78
38939;BME280;24211;49.980;19.776;2023-04-26T13:27:37;99058.63;;;16.98;37.93
38939;BME280;24211;49.980;19.776;2023-04-26T13:30:05;99065.06;;;16.37;38.11
38939;BME280;24211;49.980;19.776;2023-04-26T13:32:33;99066.66;;;16.23;38.30
38939;BME280;24211;49.980;19.776;2023-04-26T13:35:00;99069.88;;;16.15;38.86
38939;BME280;24211;49.980;19.776;2023-04-26T13:37:28;99074.44;;;16.09;40.17
38939;BME280;24211;49.980;19.776;2023-04-26T13:39:55;99083.13;;;16.16;39.92
38939;BME280;24211;49.980;19.776;2023-04-26T13:42:23;99074.22;;;16.21;40.61
38939;BME280;24211;49.980;19.776;2023-04-26T13:44:50;99073.41;;;16.20;41.14
38939;BME280;24211;49.980;19.776;2023-04-26T13:47:17;99081.31;;;16.62;40.21
38939;BME280;24211;49.980;19.776;2023-04-26T13:49:45;99070.22;;;16.99;39.53
38939;BME280;24211;49.980;19.776;2023-04-26T13:52:12;99069.59;;;17.42;37.67
38939;BME280;24211;49.980;19.776;2023-04-26T13:54:39;99053.72;;;17.95;36.50
38939;BME280;24211;49.980;19.776;2023-04-26T13:57:07;99059.28;;;17.49;39.03
38939;BME280;24211;49.980;19.776;2023-04-26T13:59:34;99062.88;;;18.04;36.88
38939;BME280;24211;49.980;19.776;2023-04-26T14:02:01;99064.84;;;17.93;37.58
38939;BME280;24211;49.980;19.776;2023-04-26T14:04:29;99064.91;;;17.73;37.26
38939;BME280;24211;49.980;19.776;2023-04-26T14:06:57;99069.31;;;17.49;37.06
38939;BME280;24211;49.980;19.776;2023-04-26T14:09:24;99076.97;;;17.07;36.15
38939;BME280;24211;49.980;19.776;2023-04-26T14:11:52;99076.44;;;16.59;38.21
38939;BME280;24211;49.980;19.776;2023-04-26T14:14:34;99079.59;;;16.21;38.34
38939;BME280;24211;49.980;19.776;2023-04-26T14:17:02;99079.56;;;16.01;38.88
38939;BME280;24211;49.980;19.776;2023-04-26T14:19:29;99092.88;;;15.65;40.06
38939;BME280;24211;49.980;19.776;2023-04-26T14:21:57;99094.28;;;15.31;41.02
38939;BME280;24211;49.980;19.776;2023-04-26T14:24:24;99105.44;;;15.03;41.12
38939;BME280;24211;49.980;19.776;2023-04-26T14:26:52;99105.59;;;14.86;41.85
38939;BME280;24211;49.980;19.776;2023-04-26T14:29:19;99102.75;;;14.71;41.81
38939;BME280;24211;49.980;19.776;2023-04-26T14:31:46;99101.94;;;14.71;42.46
38939;BME280;24211;49.980;19.776;2023-04-26T14:34:14;99108.63;;;14.36;42.29
38939;BME280;24211;49.980;19.776;2023-04-26T14:36:41;99114.31;;;14.18;42.91
38939;BME280;24211;49.980;19.776;2023-04-26T14:39:08;99106.28;;;14.23;43.35
38939;BME280;24211;49.980;19.776;2023-04-26T14:41:36;99107.94;;;14.24;44.26
38939;BME280;24211;49.980;19.776;2023-04-26T14:44:03;99104.47;;;14.29;44.63
38939;BME280;24211;49.980;19.776;2023-04-26T14:46:31;99108.56;;;14.31;44.92
38939;BME280;24211;49.980;19.776;2023-04-26T14:48:58;99114.63;;;14.22;44.37
38939;BME280;24211;49.980;19.776;2023-04-26T14:51:25;99107.25;;;13.91;44.01
38939;BME280;24211;49.980;19.776;2023-04-26T14:53:53;99109.09;;;13.85;44.49
38939;BME280;24211;49.980;19.776;2023-04-26T14:56:20;99118.09;;;13.74;44.86
38939;BME280;24211;49.980;19.776;2023-04-26T14:58:47;99116.34;;;13.63;44.91
38939;BME280;24211;49.980;19.776;2023-04-26T15:01:15;99120.69;;;13.47;45.17
38939;BME280;24211;49.980;19.776;2023-04-26T15:03:43;99126.03;;;13.26;45.50
38939;BME280;24211;49.980;19.776;2023-04-26T15:06:11;99135.56;;;13.17;45.70
38939;BME280;24211;49.980;19.776;2023-04-26T15:08:38;99135.47;;;13.12;45.85
38939;BME280;24211;49.980;19.776;2023-04-26T15:11:06;99132.38;;;13.20;45.00
38939;BME280;24211;49.980;19.776;2023-04-26T15:13:34;99129.59;;;13.15;45.35
38939;BME280;24211;49.980;19.776;2023-04-26T15:16:04;99129.44;;;13.04;45.11
38939;BME280;24211;49.980;19.776;2023-04-26T15:18:34;99130.97;;;13.17;45.03
38939;BME280;24211;49.980;19.776;2023-04-26T15:21:01;99127.66;;;13.27;44.67
38939;BME280;24211;49.980;19.776;2023-04-26T15:23:28;99123.25;;;13.21;44.73
38939;BME280;24211;49.980;19.776;2023-04-26T15:26:01;99124.47;;;13.30;44.70
38939;BME280;24211;49.980;19.776;2023-04-26T15:28:29;99133.28;;;13.47;44.72
38939;BME280;24211;49.980;19.776;2023-04-26T15:31:04;99126.94;;;13.53;44.43
38939;BME280;24211;49.980;19.776;2023-04-26T15:33:31;99129.75;;;13.41;44.44
38939;BME280;24211;49.980;19.776;2023-04-26T15:35:59;99141.56;;;13.24;44.57
38939;BME280;24211;49.980;19.776;2023-04-26T15:38:27;99148.81;;;13.06;44.24
38939;BME280;24211;49.980;19.776;2023-04-26T15:40:54;99144.78;;;12.92;44.91
38939;BME280;24211;49.980;19.776;2023-04-26T15:43:21;99154.94;;;12.74;45.76
38939;BME280;24211;49.980;19.776;2023-04-26T15:45:49;99161.47;;;12.50;45.81
38939;BME280;24211;49.980;19.776;2023-04-26T15:48:16;99156.84;;;12.45;46.55
38939;BME280;24211;49.980;19.776;2023-04-26T15:50:44;99162.06;;;12.52;46.81
38939;BME280;24211;49.980;19.776;2023-04-26T15:53:12;99165.38;;;12.42;47.00
38939;BME280;24211;49.980;19.776;2023-04-26T15:55:39;99170.16;;;12.40;47.44
38939;BME280;24211;49.980;19.776;2023-04-26T15:58:07;99164.31;;;12.43;47.66
38939;BME280;24211;49.980;19.776;2023-04-26T16:00:34;99167.56;;;12.45;48.16
38939;BME280;24211;49.980;19.776;2023-04-26T16:03:02;99166.41;;;12.41;48.53
38939;BME280;24211;49.980;19.776;2023-04-26T16:05:30;99170.00;;;12.46;48.73
38939;BME280;24211;49.980;19.776;2023-04-26T16:07:57;99175.91;;;12.60;49.45
38939;BME280;24211;49.980;19.776;2023-04-26T16:10:26;99171.19;;;12.67;49.04
38939;BME280;24211;49.980;19.776;2023-04-26T16:12:53;99174.63;;;12.79;48.62
38939;BME280;24211;49.980;19.776;2023-04-26T16:15:21;99163.72;;;13.02;48.53
38939;BME280;24211;49.980;19.776;2023-04-26T16:17:48;99170.72;;;13.03;47.73
38939;BME280;24211;49.980;19.776;2023-04-26T16:20:15;99180.31;;;12.99;48.13
38939;BME280;24211;49.980;19.776;2023-04-26T16:22:43;99171.38;;;12.94;48.23
38939;BME280;24211;49.980;19.776;2023-04-26T16:25:11;99173.47;;;12.75;48.21
38939;BME280;24211;49.980;19.776;2023-04-26T16:27:38;99178.16;;;12.68;48.04
38939;BME280;24211;49.980;19.776;2023-04-26T16:30:08;99176.19;;;12.47;48.51
38939;BME280;24211;49.980;19.776;2023-04-26T16:32:35;99178.28;;;12.45;49.10
38939;BME280;24211;49.980;19.776;2023-04-26T16:35:03;99181.41;;;12.25;49.36
38939;BME280;24211;49.980;19.776;2023-04-26T16:37:31;99178.66;;;12.09;49.18
38939;BME280;24211;49.980;19.776;2023-04-26T16:39:58;99171.31;;;12.04;49.02
38939;BME280;24211;49.980;19.776;2023-04-26T16:42:28;99170.69;;;12.14;48.62
38939;BME280;24211;49.980;19.776;2023-04-26T16:44:56;99174.19;;;12.26;48.22
38939;BME280;24211;49.980;19.776;2023-04-26T16:47:24;99175.03;;;12.43;47.91
38939;BME280;24211;49.980;19.776;2023-04-26T16:49:51;99181.25;;;12.60;47.33
38939;BME280;24211;49.980;19.776;2023-04-26T16:52:18;99179.72;;;12.64;47.40
38939;BME280;24211;49.980;19.776;2023-04-26T16:54:46;99184.50;;;12.62;47.45
38939;BME280;24211;49.980;19.776;2023-04-26T16:57:14;99182.75;;;12.68;48.19
38939;BME280;24211;49.980;19.776;2023-04-26T16:59:41;99189.41;;;12.65;47.99
38939;BME280;24211;49.980;19.776;2023-04-26T17:02:08;99199.31;;;12.53;48.50
38939;BME280;24211;49.980;19.776;2023-04-26T17:04:36;99208.34;;;12.47;48.71
38939;BME280;24211;49.980;19.776;2023-04-26T17:07:04;99205.94;;;12.34;49.22
38939;BME280;24211;49.980;19.776;2023-04-26T17:09:32;99202.38;;;12.17;49.59
38939;BME280;24211;49.980;19.776;2023-04-26T17:12:00;99211.16;;;12.01;50.13
38939;BME280;24211;49.980;19.776;2023-04-26T17:14:29;99214.78;;;11.95;50.81
38939;BME280;24211;49.980;19.776;2023-04-26T17:16:56;99221.09;;;11.89;50.64
38939;BME280;24211;49.980;19.776;2023-04-26T17:19:24;99229.00;;;11.84;51.41
38939;BME280;24211;49.980;19.776;2023-04-26T17:21:52;99229.25;;;11.70;52.08
38939;BME280;24211;49.980;19.776;2023-04-26T17:24:20;99230.75;;;11.66;52.46
38939;BME280;24211;49.980;19.776;2023-04-26T17:26:47;99232.47;;;11.49;53.43
38939;BME280;24211;49.980;19.776;2023-04-26T17:29:15;99237.81;;;11.26;54.34
38939;BME280;24211;49.980;19.776;2023-04-26T17:31:42;99242.81;;;11.23;54.85
38939;BME280;24211;49.980;19.776;2023-04-26T17:34:10;99249.78;;;11.24;55.94
38939;BME280;24211;49.980;19.776;2023-04-26T17:36:37;99247.34;;;11.22;56.69
38939;BME280;24211;49.980;19.776;2023-04-26T17:39:05;99249.06;;;11.16;56.56
38939;BME280;24211;49.980;19.776;2023-04-26T17:41:33;99254.63;;;11.03;58.49
38939;BME280;24211;49.980;19.776;2023-04-26T17:44:00;99250.19;;;10.97;59.21
38939;BME280;24211;49.980;19.776;2023-04-26T17:46:28;99259.50;;;10.95;59.62
38939;BME280;24211;49.980;19.776;2023-04-26T17:48:55;99265.53;;;10.90;60.24
38939;BME280;24211;49.980;19.776;2023-04-26T17:51:22;99254.00;;;10.90;60.99
38939;BME280;24211;49.980;19.776;2023-04-26T17:53:50;99264.72;;;10.90;60.74
38939;BME280;24211;49.980;19.776;2023-04-26T17:56:17;99267.63;;;10.88;61.67
38939;BME280;24211;49.980;19.776;2023-04-26T17:58:45;99261.91;;;10.85;61.85
38939;BME280;24211;49.980;19.776;2023-04-26T18:01:12;99266.66;;;10.83;62.85
38939;BME280;24211;49.980;19.776;2023-04-26T18:03:39;99271.44;;;10.81;62.79
38939;BME280;24211;49.980;19.776;2023-04-26T18:06:07;99275.56;;;10.77;63.24
38939;BME280;24211;49.980;19.776;2023-04-26T18:08:34;99279.75;;;10.73;64.04
38939;BME280;24211;49.980;19.776;2023-04-26T18:11:02;99282.28;;;10.68;64.10
38939;BME280;24211;49.980;19.776;2023-04-26T18:13:30;99289.34;;;10.62;64.67
38939;BME280;24211;49.980;19.776;2023-04-26T18:15:57;99285.13;;;10.55;65.81
38939;BME280;24211;49.980;19.776;2023-04-26T18:18:24;99293.00;;;10.49;66.49
38939;BME280;24211;49.980;19.776;2023-04-26T18:20:54;99289.59;;;10.42;67.29
38939;BME280;24211;49.980;19.776;2023-04-26T18:23:21;99290.03;;;10.39;67.61
38939;BME280;24211;49.980;19.776;2023-04-26T18:25:48;99297.47;;;10.37;67.81
38939;BME280;24211;49.980;19.776;2023-04-26T18:28:16;99295.03;;;10.36;67.70
38939;BME280;24211;49.980;19.776;2023-04-26T18:30:44;99305.31;;;10.32;68.83
38939;BME280;24211;49.980;19.776;2023-04-26T18:33:11;99307.84;;;10.27;68.84
38939;BME280;24211;49.980;19.776;2023-04-26T18:35:39;99311.19;;;10.23;70.03
38939;BME280;24211;49.980;19.776;2023-04-26T18:38:07;99312.88;;;10.17;70.45
38939;BME280;24211;49.980;19.776;2023-04-26T18:40:34;99317.03;;;10.13;71.05
38939;BME280;24211;49.980;19.776;2023-04-26T18:43:01;99313.75;;;10.11;71.48
38939;BME280;24211;49.980;19.776;2023-04-26T18:45:29;99319.09;;;10.11;71.82
38939;BME280;24211;49.980;19.776;2023-04-26T18:47:56;99315.44;;;10.06;72.42
38939;BME280;24211;49.980;19.776;2023-04-26T18:50:23;99318.34;;;10.04;72.35
38939;BME280;24211;49.980;19.776;2023-04-26T18:52:51;99326.22;;;9.99;73.83
38939;BME280;24211;49.980;19.776;2023-04-26T18:55:18;99326.63;;;9.96;74.16
38939;BME280;24211;49.980;19.776;2023-04-26T18:57:46;99332.41;;;9.93;75.02
38939;BME280;24211;49.980;19.776;2023-04-26T19:00:13;99339.41;;;9.94;74.49
38939;BME280;24211;49.980;19.776;2023-04-26T19:02:42;99331.22;;;9.89;75.00
38939;BME280;24211;49.980;19.776;2023-04-26T19:05:10;99345.59;;;9.88;74.33
38939;BME280;24211;49.980;19.776;2023-04-26T19:07:39;99346.06;;;9.85;75.19
38939;BME280;24211;49.980;19.776;2023-04-26T19:10:08;99345.06;;;9.79;76.05
38939;BME280;24211;49.980;19.776;2023-04-26T19:12:35;99346.09;;;9.78;76.69
38939;BME280;24211;49.980;19.776;2023-04-26T19:15:02;99348.59;;;9.73;77.24
38939;BME280;24211;49.980;19.776;2023-04-26T19:17:30;99349.84;;;9.71;76.77
38939;BME280;24211;49.980;19.776;2023-04-26T19:19:59;99354.00;;;9.67;76.67
38939;BME280;24211;49.980;19.776;2023-04-26T19:22:26;99349.09;;;9.64;77.71
38939;BME280;24211;49.980;19.776;2023-04-26T19:24:54;99347.47;;;9.63;77.63
38939;BME280;24211;49.980;19.776;2023-04-26T19:27:21;99345.66;;;9.57;78.32
38939;BME280;24211;49.980;19.776;2023-04-26T19:29:48;99344.69;;;9.51;79.06
38939;BME280;24211;49.980;19.776;2023-04-26T19:32:16;99358.66;;;9.47;79.87
38939;BME280;24211;49.980;19.776;2023-04-26T19:34:45;99350.06;;;9.45;80.55
38939;BME280;24211;49.980;19.776;2023-04-26T19:37:13;99350.50;;;9.42;80.48
38939;BME280;24211;49.980;19.776;2023-04-26T19:39:40;99341.31;;;9.38;81.95
38939;BME280;24211;49.980;19.776;2023-04-26T19:42:07;99349.13;;;9.33;82.40
38939;BME280;24211;49.980;19.776;2023-04-26T19:44:34;99353.06;;;9.30;82.67
38939;BME280;24211;49.980;19.776;2023-04-26T19:47:02;99348.13;;;9.27;82.51
38939;BME280;24211;49.980;19.776;2023-04-26T19:49:30;99351.88;;;9.19;83.66
38939;BME280;24211;49.980;19.776;2023-04-26T19:51:59;99357.63;;;9.16;84.14
38939;BME280;24211;49.980;19.776;2023-04-26T19:54:27;99350.50;;;9.10;84.23
38939;BME280;24211;49.980;19.776;2023-04-26T19:56:55;99357.91;;;9.08;84.05
38939;BME280;24211;49.980;19.776;2023-04-26T19:59:22;99357.72;;;9.03;86.26
38939;BME280;24211;49.980;19.776;2023-04-26T20:01:49;99362.88;;;8.98;86.19
38939;BME280;24211;49.980;19.776;2023-04-26T20:04:19;99361.66;;;8.94;86.71
38939;BME280;24211;49.980;19.776;2023-04-26T20:06:47;99362.69;;;8.93;85.66
38939;BME280;24211;49.980;19.776;2023-04-26T20:09:15;99364.34;;;8.88;85.80
38939;BME280;24211;49.980;19.776;2023-04-26T20:11:42;99359.91;;;8.82;87.16
38939;BME280;24211;49.980;19.776;2023-04-26T20:14:10;99368.50;;;8.77;87.30
38939;BME280;24211;49.980;19.776;2023-04-26T20:16:37;99365.22;;;8.75;86.77
38939;BME280;24211;49.980;19.776;2023-04-26T20:19:04;99365.69;;;8.72;86.43
38939;BME280;24211;49.980;19.776;2023-04-26T20:21:32;99357.50;;;8.67;87.88
38939;BME280;24211;49.980;19.776;2023-04-26T20:23:59;99377.56;;;8.63;87.92
38939;BME280;24211;49.980;19.776;2023-04-26T20:26:28;99372.66;;;8.60;88.87
38939;BME280;24211;49.980;19.776;2023-04-26T20:28:55;99368.38;;;8.59;88.64
38939;BME280;24211;49.980;19.776;2023-04-26T20:31:22;99374.34;;;8.54;89.14
38939;BME280;24211;49.980;19.776;2023-04-26T20:33:50;99377.66;;;8.50;90.44
38939;BME280;24211;49.980;19.776;2023-04-26T20:36:17;99376.41;;;8.46;91.15
38939;BME280;24211;49.980;19.776;2023-04-26T20:38:45;99373.13;;;8.44;90.99
38939;BME280;24211;49.980;19.776;2023-04-26T20:41:13;99380.53;;;8.42;91.74
38939;BME280;24211;49.980;19.776;2023-04-26T20:43:40;99381.34;;;8.36;93.00
38939;BME280;24211;49.980;19.776;2023-04-26T20:46:07;99387.91;;;8.33;93.61
38939;BME280;24211;49.980;19.776;2023-04-26T20:48:35;99386.47;;;8.31;94.26
38939;BME280;24211;49.980;19.776;2023-04-26T20:51:02;99383.44;;;8.27;94.96